createdAt,value
2023-05-05T00:01:00.926Z,99825.75
2023-05-05T00:03:28.756Z,99823.50
2023-05-05T00:05:56.983Z,99822.47
2023-05-05T00:08:24.661Z,99819.78
2023-05-05T00:10:54.967Z,99811.88
2023-05-05T00:13:24.650Z,99825.38
2023-05-05T00:15:54.317Z,99818.16
2023-05-05T00:18:22.575Z,99820.69
2023-05-05T00:20:50.488Z,99826.50
2023-05-05T00:23:20.684Z,99821.38
2023-05-05T00:25:48.538Z,99823.94
2023-05-05T00:28:16.441Z,99826.63
2023-05-05T00:30:45.411Z,99825.75
2023-05-05T00:33:13.517Z,99818.31
2023-05-05T00:35:41.306Z,99819.94
2023-05-05T00:38:10.022Z,99824.69
2023-05-05T00:40:37.875Z,99822.38
2023-05-05T00:43:06.032Z,99827.59
2023-05-05T00:45:33.719Z,99825.28
2023-05-05T00:48:02.859Z,99822.47
2023-05-05T00:50:32.016Z,99831.53
2023-05-05T00:53:03.199Z,99797.53
2023-05-05T00:55:31.563Z,99793.97
2023-05-05T00:57:59.805Z,99814.28
2023-05-05T01:00:28.714Z,99811.69
2023-05-05T01:02:56.728Z,99807.59
2023-05-05T01:05:29.030Z,99813.31
2023-05-05T01:08:09.296Z,99804.22
2023-05-05T01:10:40.371Z,99815.81
2023-05-05T01:13:20.150Z,99808.09
2023-05-05T01:15:53.620Z,99802.59
2023-05-05T01:18:32.427Z,99788.28
2023-05-05T01:21:10.968Z,99669.56
2023-05-05T01:24:03.088Z,99775.97
2023-05-05T01:26:50.610Z,99771.66
2023-05-05T01:29:39.944Z,99770.53
2023-05-05T01:32:12.040Z,99767.75
2023-05-05T01:34:46.065Z,99764.59
2023-05-05T01:37:20.174Z,99781.94
2023-05-05T01:39:52.377Z,99782.50
2023-05-05T01:42:23.637Z,99795.50
2023-05-05T01:44:54.156Z,99790.72
2023-05-05T01:47:24.606Z,99804.78
2023-05-05T01:49:53.585Z,99800.22
2023-05-05T01:52:23.651Z,99805.00
2023-05-05T01:54:53.743Z,99814.94
2023-05-05T01:57:22.349Z,99808.69
2023-05-05T01:59:52.036Z,99814.88
2023-05-05T02:02:21.520Z,99807.78
2023-05-05T02:04:53.286Z,99818.63
2023-05-05T02:07:22.261Z,99824.78
2023-05-05T02:09:49.920Z,99827.91
2023-05-05T02:12:20.254Z,99832.53
2023-05-05T02:14:48.923Z,99832.97
2023-05-05T02:17:18.312Z,99832.41
2023-05-05T02:19:48.615Z,99837.22
2023-05-05T02:22:17.556Z,99836.03
2023-05-05T02:24:45.876Z,99832.97
2023-05-05T02:27:18.703Z,99837.09
2023-05-05T02:29:50.252Z,99847.53
2023-05-05T02:32:21.436Z,99858.16
2023-05-05T02:34:51.950Z,99844.19
2023-05-05T02:37:25.499Z,99867.28
2023-05-05T02:40:01.480Z,99861.69
2023-05-05T02:42:36.080Z,99863.38
2023-05-05T02:45:11.287Z,99847.63
2023-05-05T02:47:42.449Z,99858.41
2023-05-05T02:50:11.762Z,99855.84
2023-05-05T02:52:47.166Z,99855.41
2023-05-05T02:55:16.830Z,99845.19
2023-05-05T02:57:50.891Z,99841.66
2023-05-05T03:00:25.435Z,99838.75
2023-05-05T03:03:05.479Z,99845.06
2023-05-05T03:05:44.221Z,99839.09
2023-05-05T03:08:19.085Z,99842.22
2023-05-05T03:10:52.793Z,99842.97
2023-05-05T03:13:24.483Z,99809.59
2023-05-05T03:15:54.196Z,99796.78
2023-05-05T03:18:26.074Z,99852.44
2023-05-05T03:21:08.810Z,99857.03
2023-05-05T03:23:40.744Z,99855.53
2023-05-05T03:26:18.578Z,99854.97
2023-05-05T03:28:46.319Z,99857.09
2023-05-05T03:31:25.878Z,99860.41
2023-05-05T03:33:57.364Z,99854.63
2023-05-05T03:36:29.568Z,99848.16
2023-05-05T03:38:59.837Z,99849.69
2023-05-05T03:41:32.218Z,99852.38
2023-05-05T03:44:00.707Z,99859.34
2023-05-05T03:46:29.134Z,99861.56
2023-05-05T03:48:57.798Z,99860.69
2023-05-05T03:51:27.997Z,99861.78
2023-05-05T03:53:56.262Z,99866.16
2023-05-05T03:56:25.272Z,99871.31
2023-05-05T03:58:53.304Z,99871.50
2023-05-05T04:01:23.525Z,99873.13
2023-05-05T04:03:51.823Z,99880.09
2023-05-05T04:06:20.851Z,99875.34
2023-05-05T04:08:49.125Z,99874.09
2023-05-05T04:11:17.112Z,99875.94
2023-05-05T04:13:47.185Z,99876.31
2023-05-05T04:16:14.965Z,99889.03
2023-05-05T04:18:43.909Z,99889.69
2023-05-05T04:21:11.564Z,99874.47
2023-05-05T04:23:40.047Z,99879.00
2023-05-05T04:26:08.308Z,99881.47
2023-05-05T04:28:36.637Z,99874.47
2023-05-05T04:31:06.150Z,99875.34
2023-05-05T04:33:37.766Z,99866.34
2023-05-05T04:36:06.281Z,99869.41
2023-05-05T04:38:34.902Z,99882.31
2023-05-05T04:41:06.146Z,99899.38
2023-05-05T04:43:34.568Z,99902.44
2023-05-05T04:46:02.752Z,99908.97
2023-05-05T04:48:36.981Z,99911.41
2023-05-05T04:51:06.312Z,99913.63
2023-05-05T04:53:34.081Z,99919.16
2023-05-05T04:56:03.376Z,99913.75
2023-05-05T04:58:31.625Z,99914.91
2023-05-05T05:00:59.636Z,99915.69
2023-05-05T05:03:27.971Z,99915.56
2023-05-05T05:05:57.012Z,99916.31
2023-05-05T05:08:25.125Z,99900.72
2023-05-05T05:10:53.179Z,99916.59
2023-05-05T05:13:20.876Z,99909.38
2023-05-05T05:15:48.582Z,99913.00
2023-05-05T05:18:16.599Z,99919.47
2023-05-05T05:20:44.704Z,99922.81
2023-05-05T05:23:13.738Z,99927.41
2023-05-05T05:25:44.903Z,99926.81
2023-05-05T05:28:14.359Z,99936.16
2023-05-05T05:30:56.097Z,99937.22
2023-05-05T05:33:24.196Z,99939.50
2023-05-05T05:35:54.084Z,99932.31
2023-05-05T05:38:23.885Z,99928.00
2023-05-05T05:40:55.383Z,99932.09
2023-05-05T05:43:24.225Z,99938.38
2023-05-05T05:45:51.983Z,99940.13
2023-05-05T05:48:21.404Z,99940.47
2023-05-05T05:50:49.077Z,99944.41
2023-05-05T05:53:16.735Z,99950.69
2023-05-05T05:55:46.803Z,99953.19
2023-05-05T05:58:16.722Z,99955.75
2023-05-05T06:00:44.491Z,99958.91
2023-05-05T06:03:13.132Z,99956.38
2023-05-05T06:05:40.852Z,99956.59
2023-05-05T06:08:09.092Z,99942.66
2023-05-05T06:10:42.306Z,99977.38
2023-05-05T06:13:16.875Z,99970.53
2023-05-05T06:15:48.350Z,99969.56
2023-05-05T06:18:16.934Z,99964.00
2023-05-05T06:20:44.816Z,99970.94
2023-05-05T06:23:14.843Z,99970.59
2023-05-05T06:25:47.948Z,99974.97
2023-05-05T06:28:17.595Z,99966.06
2023-05-05T06:30:45.194Z,99974.00
2023-05-05T06:33:13.088Z,99983.00
2023-05-05T06:35:41.262Z,99984.25
2023-05-05T06:38:09.674Z,99974.28
2023-05-05T06:40:37.392Z,99974.59
2023-05-05T06:43:05.273Z,99974.63
2023-05-05T06:45:39.091Z,99932.97
2023-05-05T06:48:06.879Z,99986.22
2023-05-05T06:50:34.523Z,99988.53
2023-05-05T06:53:02.499Z,99983.16
2023-05-05T06:55:30.335Z,99983.28
2023-05-05T06:57:58.279Z,99981.16
2023-05-05T07:00:26.090Z,99981.88
2023-05-05T07:02:55.388Z,99980.00
2023-05-05T07:05:23.857Z,99987.72
2023-05-05T07:07:52.906Z,99989.66
2023-05-05T07:10:21.352Z,99989.94
2023-05-05T07:12:49.762Z,99993.44
2023-05-05T07:15:27.353Z,99965.97
2023-05-05T07:17:58.224Z,99996.41
2023-05-05T07:20:26.375Z,99988.38
2023-05-05T07:22:54.058Z,99988.47
2023-05-05T07:25:23.048Z,99990.22
2023-05-05T07:27:51.084Z,99991.66
2023-05-05T07:30:19.521Z,100010.19
2023-05-05T07:32:47.920Z,100005.13
2023-05-05T07:35:17.132Z,100010.88
2023-05-05T07:37:45.456Z,100002.84
2023-05-05T07:40:13.841Z,100010.25
2023-05-05T07:42:41.800Z,100004.78
2023-05-05T07:45:10.011Z,100007.69
2023-05-05T07:47:38.225Z,100008.56
2023-05-05T07:50:07.576Z,100005.22
2023-05-05T07:52:46.738Z,100010.22
2023-05-05T07:55:19.838Z,100012.16
2023-05-05T07:57:48.187Z,100006.06
2023-05-05T08:00:19.523Z,99996.47
2023-05-05T08:02:48.110Z,100007.59
2023-05-05T08:05:16.419Z,100002.69
2023-05-05T08:07:45.694Z,100004.84
2023-05-05T08:10:14.429Z,99992.97
2023-05-05T08:12:42.646Z,99995.69
2023-05-05T08:15:11.199Z,99998.97
2023-05-05T08:17:49.834Z,100003.53
2023-05-05T08:20:17.945Z,99992.72
2023-05-05T08:22:47.466Z,100001.41
2023-05-05T08:25:15.600Z,99998.97
2023-05-05T08:27:44.120Z,99997.88
2023-05-05T08:30:12.524Z,99996.53
2023-05-05T08:32:40.645Z,99998.94
2023-05-05T08:35:09.087Z,99993.75
2023-05-05T08:37:37.506Z,99994.25
2023-05-05T08:40:07.880Z,99988.00
2023-05-05T08:42:38.696Z,99995.09
2023-05-05T08:45:09.575Z,99979.38
2023-05-05T08:47:39.129Z,99991.22
2023-05-05T08:50:10.905Z,99983.38
2023-05-05T08:52:41.507Z,99982.59
2023-05-05T08:55:15.841Z,99988.75
2023-05-05T08:57:51.503Z,99987.41
2023-05-05T09:00:20.077Z,99988.13
2023-05-05T09:02:48.984Z,99989.63
2023-05-05T09:05:17.010Z,99993.97
2023-05-05T09:07:45.144Z,99981.41
2023-05-05T09:10:14.199Z,99981.34
2023-05-05T09:12:42.322Z,99982.03
2023-05-05T09:15:11.557Z,99986.56
2023-05-05T09:17:39.656Z,99990.00
2023-05-05T09:20:09.082Z,99982.50
2023-05-05T09:22:38.238Z,99956.84
2023-05-05T09:25:06.972Z,99983.41
2023-05-05T09:27:41.477Z,99976.63
2023-05-05T09:30:10.809Z,99972.88
2023-05-05T09:32:46.891Z,99973.22
2023-05-05T09:35:14.798Z,99968.06
2023-05-05T09:37:42.894Z,99960.44
2023-05-05T09:40:11.773Z,99958.69
2023-05-05T09:42:41.558Z,99946.06
2023-05-05T09:45:27.224Z,99955.44
2023-05-05T09:47:59.526Z,99955.38
2023-05-05T09:50:30.721Z,99949.19
2023-05-05T09:53:00.731Z,99947.53
2023-05-05T09:55:30.807Z,99945.31
2023-05-05T09:58:21.227Z,99941.34
2023-05-05T10:00:48.899Z,99948.56
2023-05-05T10:03:17.046Z,99932.84
2023-05-05T10:05:52.127Z,99943.63
2023-05-05T10:08:22.670Z,99953.84
2023-05-05T10:10:55.343Z,99950.69
2023-05-05T10:13:25.778Z,99947.81
2023-05-05T10:15:55.479Z,99949.28
2023-05-05T10:18:24.781Z,99950.69
2023-05-05T10:20:58.869Z,99949.34
2023-05-05T10:23:34.017Z,99950.03
2023-05-05T10:26:04.273Z,99945.16
2023-05-05T10:28:44.975Z,99939.28
2023-05-05T10:31:25.698Z,99944.69
2023-05-05T10:34:00.322Z,99935.63
2023-05-05T10:36:29.260Z,99934.63
2023-05-05T10:38:58.219Z,99935.66
2023-05-05T10:41:26.586Z,99925.03
2023-05-05T10:43:57.375Z,99903.50
2023-05-05T10:46:26.330Z,99933.13
2023-05-05T10:49:01.047Z,99924.38
2023-05-05T10:51:40.950Z,99919.31
2023-05-05T10:54:15.084Z,99928.06
2023-05-05T10:56:43.819Z,99925.34
2023-05-05T10:59:47.790Z,99917.66
2023-05-05T11:02:23.648Z,99916.00
2023-05-05T11:05:05.719Z,99914.25
2023-05-05T11:07:34.400Z,99917.50
2023-05-05T11:10:02.972Z,99912.41
2023-05-05T11:12:32.006Z,99911.66
2023-05-05T11:15:38.724Z,99910.91
2023-05-05T11:18:08.188Z,99896.13
2023-05-05T11:21:05.354Z,99905.47
2023-05-05T11:23:33.044Z,99901.53
2023-05-05T11:26:00.897Z,99893.19
2023-05-05T11:28:31.426Z,99889.16
2023-05-05T11:31:28.091Z,99892.06
2023-05-05T11:33:55.904Z,99890.13
2023-05-05T11:36:43.387Z,99894.06
2023-05-05T11:39:22.422Z,99890.22
2023-05-05T11:42:06.600Z,99887.56
2023-05-05T11:44:37.437Z,99886.31
2023-05-05T11:47:35.135Z,99880.59
2023-05-05T11:50:21.308Z,99882.38
2023-05-05T11:52:50.270Z,99875.91
2023-05-05T11:55:23.030Z,99872.16
2023-05-05T11:57:51.481Z,99874.22
2023-05-05T12:00:19.771Z,99872.63
2023-05-05T12:02:57.326Z,99861.47
2023-05-05T12:05:25.141Z,99861.56
2023-05-05T12:07:58.410Z,99861.47
2023-05-05T12:10:26.288Z,99865.63
2023-05-05T12:12:55.475Z,99866.97
2023-05-05T12:15:31.042Z,99865.03
2023-05-05T12:18:02.328Z,99856.19
2023-05-05T12:20:33.336Z,99852.56
2023-05-05T12:23:02.735Z,99852.91
2023-05-05T12:25:37.164Z,99845.38
2023-05-05T12:28:06.038Z,99852.88
2023-05-05T12:30:34.228Z,99840.50
2023-05-05T12:33:04.572Z,99836.44
2023-05-05T12:35:33.349Z,99840.75
2023-05-05T12:38:01.080Z,99838.19
2023-05-05T12:40:45.855Z,99836.47
2023-05-05T12:43:30.528Z,99824.06
2023-05-05T12:46:06.969Z,99834.19
2023-05-05T12:48:37.896Z,99822.25
2023-05-05T12:51:20.109Z,99833.75
2023-05-05T12:53:49.101Z,99817.44
2023-05-05T12:56:37.042Z,99812.97
2023-05-05T12:59:06.894Z,99821.63
2023-05-05T13:01:34.929Z,99767.06
2023-05-05T13:04:12.113Z,99810.97
2023-05-05T13:06:41.236Z,99799.66
2023-05-05T13:09:09.939Z,99806.28
2023-05-05T13:11:38.686Z,99799.31
2023-05-05T13:14:07.767Z,99804.59
2023-05-05T13:16:36.093Z,99796.09
2023-05-05T13:19:03.747Z,99794.06
2023-05-05T13:21:33.009Z,99794.66
2023-05-05T13:24:16.244Z,99792.97
2023-05-05T13:26:49.959Z,99782.28
2023-05-05T13:29:17.943Z,99787.16
2023-05-05T13:31:46.477Z,99782.09
2023-05-05T13:34:14.162Z,99772.75
2023-05-05T13:36:43.448Z,99773.50
2023-05-05T13:39:11.236Z,99776.59
2023-05-05T13:41:39.125Z,99772.25
2023-05-05T13:44:06.747Z,99773.78
2023-05-05T13:46:34.663Z,99765.03
2023-05-05T13:49:02.319Z,99774.66
2023-05-05T13:51:30.661Z,99768.19
2023-05-05T13:53:59.630Z,99765.63
2023-05-05T13:56:27.910Z,99764.97
2023-05-05T13:58:55.511Z,99764.16
2023-05-05T14:01:23.469Z,99768.75
2023-05-05T14:03:51.213Z,99766.63
2023-05-05T14:06:19.058Z,99762.09
2023-05-05T14:08:47.073Z,99757.78
2023-05-05T14:11:18.274Z,99759.75
2023-05-05T14:13:47.492Z,99756.66
2023-05-05T14:16:15.661Z,99752.81
2023-05-05T14:18:43.441Z,99745.53
2023-05-05T14:21:11.377Z,99751.59
2023-05-05T14:23:39.026Z,99744.44
2023-05-05T14:26:09.111Z,99746.69
2023-05-05T14:28:38.229Z,99740.00
2023-05-05T14:31:06.317Z,99737.41
2023-05-05T14:33:33.930Z,99742.34
2023-05-05T14:36:01.780Z,99741.19
2023-05-05T14:38:29.607Z,99737.81
2023-05-05T14:40:57.836Z,99743.94
2023-05-05T14:43:25.550Z,99733.25
2023-05-05T14:45:54.681Z,99738.16
2023-05-05T14:48:22.737Z,99732.13
2023-05-05T14:50:50.499Z,99735.66
2023-05-05T14:53:18.925Z,99731.94
2023-05-05T14:55:46.633Z,99735.25
2023-05-05T14:58:14.757Z,99743.88
2023-05-05T15:00:42.394Z,99733.81
2023-05-05T15:03:11.690Z,99730.94
2023-05-05T15:05:39.387Z,99739.19
2023-05-05T15:08:07.795Z,99737.66
2023-05-05T15:10:35.441Z,99730.84
2023-05-05T15:13:03.360Z,99725.56
2023-05-05T15:15:31.158Z,99728.91
2023-05-05T15:17:59.123Z,99719.69
2023-05-05T15:20:28.391Z,99718.63
2023-05-05T15:22:56.339Z,99735.84
2023-05-05T15:25:23.975Z,99734.38
2023-05-05T15:27:52.161Z,99734.06
2023-05-05T15:30:19.758Z,99736.97
2023-05-05T15:32:48.079Z,99741.09
2023-05-05T15:35:15.786Z,99748.97
2023-05-05T15:37:45.056Z,99789.06
2023-05-05T15:40:13.200Z,99816.72
2023-05-05T15:42:41.255Z,99804.59
2023-05-05T15:45:12.017Z,99805.59
2023-05-05T15:47:39.977Z,99807.69
2023-05-05T15:50:08.917Z,99805.06
2023-05-05T15:52:36.892Z,99817.13
2023-05-05T15:55:08.125Z,99803.53
2023-05-05T15:57:36.533Z,99802.38
2023-05-05T16:00:04.641Z,99804.03
2023-05-05T16:02:35.427Z,99800.66
2023-05-05T16:05:03.177Z,99794.28
2023-05-05T16:07:31.122Z,99798.22
2023-05-05T16:09:58.708Z,99768.78
2023-05-05T16:12:27.934Z,99808.56
2023-05-05T16:14:55.587Z,99810.00
2023-05-05T16:17:23.504Z,99818.75
2023-05-05T16:19:51.319Z,99821.59
2023-05-05T16:22:20.710Z,99825.00
2023-05-05T16:24:48.658Z,99833.63
2023-05-05T16:27:16.427Z,99850.16
2023-05-05T16:29:45.729Z,99864.50
2023-05-05T16:32:13.331Z,99862.28
2023-05-05T16:34:41.045Z,99865.28
2023-05-05T16:37:08.660Z,99865.78
2023-05-05T16:39:40.262Z,99870.66
2023-05-05T16:42:08.153Z,99842.44
2023-05-05T16:44:36.120Z,99857.91
2023-05-05T16:47:05.178Z,99857.34
2023-05-05T16:49:33.113Z,99851.78
2023-05-05T16:52:00.700Z,99852.09
2023-05-05T16:54:28.465Z,99847.00
2023-05-05T16:56:56.088Z,99844.53
2023-05-05T16:59:23.943Z,99847.41
2023-05-05T17:01:51.618Z,99852.41
2023-05-05T17:04:20.755Z,99847.88
2023-05-05T17:06:48.336Z,99845.34
2023-05-05T17:09:16.187Z,99834.19
2023-05-05T17:11:43.781Z,99836.53
2023-05-05T17:14:11.544Z,99835.59
2023-05-05T17:16:39.327Z,99832.31
2023-05-05T17:19:07.103Z,99839.75
2023-05-05T17:21:36.191Z,99843.22
2023-05-05T17:24:04.109Z,99849.56
2023-05-05T17:26:31.787Z,99837.63
2023-05-05T17:28:59.578Z,99832.69
2023-05-05T17:31:27.226Z,99844.78
2023-05-05T17:33:55.155Z,99848.53
2023-05-05T17:36:22.908Z,99841.75
2023-05-05T17:38:52.092Z,99852.84
2023-05-05T17:41:19.713Z,99854.44
2023-05-05T17:43:48.429Z,99851.28
2023-05-05T17:46:16.386Z,99853.19
2023-05-05T17:48:44.211Z,99850.53
2023-05-05T17:51:12.126Z,99849.41
2023-05-05T17:53:39.881Z,99855.81
2023-05-05T17:56:09.335Z,99861.41
2023-05-05T17:58:36.990Z,99856.66
2023-05-05T18:01:05.011Z,99847.47
2023-05-05T18:03:32.873Z,99850.75
2023-05-05T18:06:01.441Z,99856.47
2023-05-05T18:08:29.060Z,99855.50
2023-05-05T18:10:57.150Z,99857.38
2023-05-05T18:13:26.138Z,99853.19
2023-05-05T18:15:54.155Z,99864.78
2023-05-05T18:18:22.129Z,99860.59
2023-05-05T18:20:50.180Z,99856.53
2023-05-05T18:23:17.783Z,99865.53
2023-05-05T18:25:45.429Z,99862.50
2023-05-05T18:28:13.204Z,99866.56
2023-05-05T18:30:42.176Z,99862.16
2023-05-05T18:33:09.927Z,99860.75
2023-05-05T18:35:37.937Z,99865.19
2023-05-05T18:38:05.752Z,99863.78
2023-05-05T18:40:33.604Z,99859.81
2023-05-05T18:43:01.192Z,99866.47
2023-05-05T18:45:29.088Z,99859.72
2023-05-05T18:47:58.115Z,99865.69
2023-05-05T18:50:26.093Z,99869.75
2023-05-05T18:52:53.777Z,99863.34
2023-05-05T18:55:22.161Z,99872.19
2023-05-05T18:57:50.014Z,99872.09
2023-05-05T19:00:19.946Z,99879.78
2023-05-05T19:02:47.604Z,99882.47
2023-05-05T19:05:16.724Z,99885.44
2023-05-05T19:07:45.128Z,99888.59
2023-05-05T19:10:13.138Z,99892.19
2023-05-05T19:12:40.764Z,99896.97
2023-05-05T19:15:09.635Z,99905.59
2023-05-05T19:17:37.697Z,99909.34
2023-05-05T19:20:06.250Z,99909.66
2023-05-05T19:22:35.579Z,99914.69
2023-05-05T19:25:03.616Z,99909.53
2023-05-05T19:27:33.973Z,99915.97
2023-05-05T19:30:01.618Z,99913.16
2023-05-05T19:32:29.686Z,99918.84
2023-05-05T19:34:57.730Z,99930.03
2023-05-05T19:37:25.887Z,99916.63
2023-05-05T19:39:54.850Z,99925.94
2023-05-05T19:42:22.755Z,99925.00
2023-05-05T19:44:50.745Z,99929.75
2023-05-05T19:47:19.119Z,99933.88
2023-05-05T19:49:46.719Z,99930.16
2023-05-05T19:52:14.399Z,99925.22
2023-05-05T19:54:43.338Z,99918.25
2023-05-05T19:57:12.873Z,99919.88
2023-05-05T19:59:41.593Z,99920.38
2023-05-05T20:02:09.708Z,99931.44
2023-05-05T20:04:37.373Z,99936.22
2023-05-05T20:07:05.104Z,99938.53
2023-05-05T20:09:32.755Z,99922.09
2023-05-05T20:12:02.075Z,99932.13
2023-05-05T20:14:31.494Z,99925.38
2023-05-05T20:16:59.264Z,99933.41
2023-05-05T20:19:26.849Z,99937.38
2023-05-05T20:21:54.717Z,99939.31
2023-05-05T20:24:22.344Z,99946.56
2023-05-05T20:26:50.514Z,99930.88
2023-05-05T20:29:19.567Z,99933.13
2023-05-05T20:31:49.082Z,99933.56
2023-05-05T20:34:16.824Z,99937.22
2023-05-05T20:36:44.721Z,99935.66
2023-05-05T20:39:15.540Z,99941.22
2023-05-05T20:41:43.881Z,99926.59
2023-05-05T20:44:11.463Z,99935.44
2023-05-05T20:46:39.426Z,99938.66
2023-05-05T20:49:08.449Z,99937.81
2023-05-05T20:51:36.069Z,99932.13
2023-05-05T20:54:04.267Z,99941.78
2023-05-05T20:56:31.933Z,99948.47
2023-05-05T20:58:59.809Z,99943.50
2023-05-05T21:01:28.391Z,99945.09
2023-05-05T21:03:56.280Z,99946.31
2023-05-05T21:06:25.337Z,99949.63
2023-05-05T21:08:53.374Z,99948.06
2023-05-05T21:11:21.428Z,99959.59
2023-05-05T21:13:49.253Z,99945.16
2023-05-05T21:16:16.926Z,99944.88
2023-05-05T21:18:46.887Z,99947.19
2023-05-05T21:21:14.512Z,99944.31
2023-05-05T21:23:43.609Z,99944.72
2023-05-05T21:26:11.225Z,99952.69
2023-05-05T21:28:39.114Z,99941.47
2023-05-05T21:31:21.326Z,99951.56
2023-05-05T21:33:50.195Z,99942.78
2023-05-05T21:36:19.084Z,99944.34
2023-05-05T21:38:48.675Z,99940.09
2023-05-05T21:41:16.665Z,99845.00
2023-05-05T21:43:44.780Z,99946.22
2023-05-05T21:46:12.825Z,99910.56
2023-05-05T21:48:41.355Z,99931.22
2023-05-05T21:51:09.079Z,99940.56
2023-05-05T21:53:37.924Z,99941.94
2023-05-05T21:56:07.739Z,99949.47
2023-05-05T21:58:35.684Z,99949.75
2023-05-05T22:01:03.480Z,99947.13
2023-05-05T22:03:32.080Z,99951.38
2023-05-05T22:05:59.818Z,99950.78
2023-05-05T22:08:27.734Z,99950.78
2023-05-05T22:10:55.331Z,99954.53
2023-05-05T22:13:24.601Z,99949.16
2023-05-05T22:15:52.385Z,99937.44
2023-05-05T22:18:20.376Z,99940.59
2023-05-05T22:20:48.012Z,99946.50
2023-05-05T22:23:16.351Z,99950.47
2023-05-05T22:25:44.546Z,99950.63
2023-05-05T22:28:12.674Z,99959.47
2023-05-05T22:30:41.885Z,99961.63
2023-05-05T22:33:09.829Z,99962.66
2023-05-05T22:35:38.080Z,99958.84
2023-05-05T22:38:06.196Z,99960.06
2023-05-05T22:40:33.875Z,99957.25
2023-05-05T22:43:01.439Z,99963.03
2023-05-05T22:45:29.492Z,99967.72
2023-05-05T22:47:58.506Z,99962.81
2023-05-05T22:50:26.587Z,99961.31
2023-05-05T22:52:54.322Z,99958.84
2023-05-05T22:55:24.860Z,99955.91
2023-05-05T22:57:53.181Z,99956.50
2023-05-05T23:00:21.330Z,99957.66
2023-05-05T23:02:49.029Z,99957.63
2023-05-05T23:05:18.493Z,99959.63
2023-05-05T23:07:46.154Z,99953.34
2023-05-05T23:10:14.015Z,99951.75
2023-05-05T23:12:41.729Z,99960.06
2023-05-05T23:15:11.008Z,99956.38
2023-05-05T23:17:38.914Z,99958.13
2023-05-05T23:20:10.262Z,99962.31
2023-05-05T23:22:39.179Z,99973.84
2023-05-05T23:25:08.103Z,99970.69
2023-05-05T23:27:35.980Z,99966.94
2023-05-05T23:30:03.870Z,99967.28
2023-05-05T23:32:31.486Z,99958.16
2023-05-05T23:34:59.604Z,99956.63
2023-05-05T23:37:27.239Z,99947.03
2023-05-05T23:39:57.476Z,99955.75
2023-05-05T23:42:25.441Z,99950.66
2023-05-05T23:44:53.255Z,99954.38
2023-05-05T23:47:20.851Z,99950.72
2023-05-05T23:49:48.743Z,99956.47
2023-05-05T23:52:16.462Z,99951.53
2023-05-05T23:54:45.465Z,99953.19
2023-05-05T23:57:14.401Z,99950.50
2023-05-05T23:59:42.478Z,99942.47
